Jump to content

  •  

AMERICAN AIRLINES FLIGHT AA1325 FLOWN ON 07-30-2017 BY CAPTAIN JIM BOERMAN

Pilot StatsCaptain Jim Boerman (LDP136) • 4,686.4 total hours • 1,423 total flights [View Logbook]
FLIGHT DETAILS
StatusReceived and approved on 2017-07-30 at 11:07:53
Origin AirportBermuda Intl (TXKF) • Bermuda Is, Bermuda (12 feet MSL)
Filed Flight PlanFLIGHT PLANNER OFFLINE
Destination AirportMiami Intl (KMIA) • Miami, Florida, United States (8 feet MSL)
Alternate AirportSouthwest Florida Intl (KRSW) • Ft Myers, Florida, United States (30 feet MSL)
AirlineAmerican Airlines
AircraftAirbus A320 (320 / A320)
FS Aircraft UsedFeelthere A320 CFM American Airlines
Cruising AltitudeFL340
Distance Flown907 nautical miles
Passengers Onboard55 passengers (36.67% full)
DEPARTURE DETAILS
Time Out08:55:03
Taxi Data138,784 lbs total with 21,106 lbs of fuel onboard
Takeoff Data09:07:19 (12 minutes after leaving gate/ramp) • 137,877 lbs total • 7° pitch at 152 knots
Departure METARTXKF 301155Z 23018KT 9999 FEW018TCU SCT300 29/25 Q1017 RMK TCU NE-SE
ARRIVAL DETAILS
Landing Data11:35:29 • 125,683 lbs total • 4° pitch doing 131 knots at a rate of -61.52 feet/minute with 7,495 lbs of fuel onboard
Time In11:43:10 (8 minutes after landing)
Ramp Weight125,173 lbs total
Total Fuel Used13,611 lbs
Total Block Time02:44:52 (2.7 hours) while 20 minutes were spent on the ground
Arrival METARKMIA 301453Z 25012KT 10SM FEW030 SCT150 BKN250 33/23 A2994 RMK AO2 LTG DSNT W SLP138 CB DSNT W-NW T03280228 51001
MISCELLANEOUS DETAILS
LiveDISPATCH Version4.8.3.1
FS Version
FSUIPC Version4.93
OS VersionWindows 7 32-bit
Screen Resolution1920 x 1080
Pilot's CommentsNo Comments Reported
FLIGHT MAP